Terminal Aerodrome Forecast
Issued by NWS

Home | Current Version | Previous Version | Text Only | Print | Product List | Glossary On
Versions: 1 2 3 4 5 6 7 8 9 10 11 12 13 14
000
FTUS46 KPDT 261730
TAFRDM
TAF
KRDM 261730Z 2618/2718 VRB03KT P6SM FEW120
     FM262000 30011G20KT P6SM VCSH SCT100 BKN120
     FM270000 31014G23KT P6SM SCT120
     FM270500 30007KT P6SM FEW100 FEW130=

USA.gov is the U.S. government's official web portal to all federal, state and local government web resources and services.